Time;durP1;ratioP1;P1;durP2;ratioP2;P2;SDS_P1;SDS_P2;PMS_P1;PMS_P2;Temp;Humidity;BMP_temperature;BMP_pressure;BME280_temperature;BME280_humidity;BME280_pressure;Samples;Min_cycle;Max_cycle;Signal;HPM_P1;HPM_P2
2023/03/13 00:01:49;;;;;;;9.88;2.13;;;;;;;;;;4975031;28;20089;-59
2023/03/13 00:04:14;;;;;;;11.98;2.00;;;;;;;;;;4978556;28;20494;-58
2023/03/13 00:06:41;;;;;;;7.63;2.03;;;;;;;;;;4973231;28;20031;-58
2023/03/13 00:09:09;;;;;;;9.40;2.97;;;;;;;;;;4973101;28;20035;-59
2023/03/13 00:11:35;;;;;;;13.93;4.55;;;;;;;;;;4974641;28;20046;-59
2023/03/13 00:14:01;;;;;;;9.05;3.17;;;;;;;;;;4975747;28;20120;-60
2023/03/13 00:16:27;;;;;;;9.52;2.42;;;;;;;;;;4973211;28;20030;-60
2023/03/13 00:18:54;;;;;;;10.75;3.10;;;;;;;;;;4976276;28;20088;-61
2023/03/13 00:21:22;;;;;;;8.75;2.15;;;;;;;;;;4972217;28;20125;-61
2023/03/13 00:23:48;;;;;;;8.98;2.05;;;;;;;;;;4972759;28;20070;-60
2023/03/13 00:26:16;;;;;;;6.45;2.08;;;;;;;;;;4972601;28;20054;-60
2023/03/13 00:28:42;;;;;;;6.88;1.88;;;;;;;;;;4972552;28;20035;-60
2023/03/13 00:31:22;;;;;;;8.85;1.90;;;;;;;;;;4970787;28;20038;-60
2023/03/13 00:33:48;;;;;;;;;;;;;;;;;;4971895;28;20433;-60
2023/03/13 00:36:17;;;;;;;10.02;1.77;;;;;;;;;;4972704;28;19914;-59
2023/03/13 00:38:43;;;;;;;8.60;2.33;;;;;;;;;;4972637;28;20485;-59
2023/03/13 00:41:11;;;;;;;9.98;2.10;;;;;;;;;;4970903;28;20050;-60
2023/03/13 00:43:37;;;;;;;8.30;1.92;;;;;;;;;;4970417;28;20038;-58
2023/03/13 00:46:03;;;;;;;6.40;1.40;;;;;;;;;;4973180;28;20052;-58
2023/03/13 00:48:29;;;;;;;9.70;1.80;;;;;;;;;;4974126;28;20556;-60
2023/03/13 00:50:54;;;;;;;3.67;1.33;;;;;;;;;;4971320;28;20715;-59
2023/03/13 00:53:20;;;;;;;5.00;1.70;;;;;;;;;;4974898;28;20440;-59
2023/03/13 00:56:04;;;;;;;8.15;1.83;;;;;;;;;;4974639;28;20101;-59
2023/03/13 00:58:32;;;;;;;7.65;1.50;;;;;;;;;;4973055;28;20035;-59
2023/03/13 01:01:22;;;;;;;5.13;1.55;;;;;;;;;;4971246;28;20608;-58
2023/03/13 01:03:57;;;;;;;6.38;1.45;;;;;;;;;;4972413;28;20408;-60
2023/03/13 01:06:25;;;;;;;3.65;1.45;;;;;;;;;;4970799;28;20034;-59
2023/03/13 01:08:50;;;;;;;6.32;1.63;;;;;;;;;;4979189;28;20694;-59
2023/03/13 01:11:24;;;;;;;4.40;1.63;;;;;;;;;;4975102;28;20031;-60
2023/03/13 01:13:55;;;;;;;8.82;2.47;;;;;;;;;;4969862;28;20129;-59
2023/03/13 01:16:22;;;;;;;6.90;1.75;;;;;;;;;;4971367;28;20026;-59
2023/03/13 01:18:50;;;;;;;8.95;1.67;;;;;;;;;;4971677;28;20492;-60
2023/03/13 01:21:18;;;;;;;4.43;1.67;;;;;;;;;;4970167;28;20453;-59
2023/03/13 01:23:44;;;;;;;5.72;1.33;;;;;;;;;;4971038;28;20030;-60
2023/03/13 01:26:10;;;;;;;6.15;1.45;;;;;;;;;;4975822;28;20077;-59
2023/03/13 01:28:36;;;;;;;4.18;1.35;;;;;;;;;;4975194;28;20041;-59
2023/03/13 01:31:10;;;;;;;4.35;1.60;;;;;;;;;;4974225;28;20037;-59
2023/03/13 01:33:36;;;;;;;7.32;1.67;;;;;;;;;;4966855;28;20023;-59
2023/03/13 01:36:02;;;;;;;5.75;1.50;;;;;;;;;;4971818;28;20031;-59
2023/03/13 01:38:28;;;;;;;5.45;1.55;;;;;;;;;;4972496;28;20039;-59
2023/03/13 01:40:54;;;;;;;5.68;1.50;;;;;;;;;;4971787;28;20041;-59
2023/03/13 01:43:20;;;;;;;7.65;1.40;;;;;;;;;;4971151;28;20030;-59
2023/03/13 01:45:51;;;;;;;5.97;1.63;;;;;;;;;;4970373;28;20453;-59
2023/03/13 01:48:17;;;;;;;4.22;1.60;;;;;;;;;;4970794;28;20089;-58
2023/03/13 01:50:43;;;;;;;7.28;1.45;;;;;;;;;;4970028;28;20456;-60
2023/03/13 01:53:09;;;;;;;3.45;1.30;;;;;;;;;;4969596;28;20034;-58
2023/03/13 01:55:35;;;;;;;4.68;1.23;;;;;;;;;;4973226;28;20027;-58
2023/03/13 01:58:00;;;;;;;6.20;1.50;;;;;;;;;;4976698;28;20033;-60
2023/03/13 02:00:32;;;;;;;6.60;1.10;;;;;;;;;;4975088;28;20512;-58
2023/03/13 02:03:03;;;;;;;4.43;1.23;;;;;;;;;;4970544;28;20019;-60
2023/03/13 02:05:30;;;;;;;3.10;0.98;;;;;;;;;;4970637;28;20094;-60
2023/03/13 02:08:00;;;;;;;3.40;1.10;;;;;;;;;;4969645;28;20046;-58
2023/03/13 02:10:28;;;;;;;5.05;1.00;;;;;;;;;;4970690;28;20027;-60
2023/03/13 02:12:54;;;;;;;5.03;1.05;;;;;;;;;;4970459;28;20522;-58
2023/03/13 02:15:22;;;;;;;5.93;1.52;;;;;;;;;;4970611;28;20042;-60
2023/03/13 02:17:49;;;;;;;5.35;1.27;;;;;;;;;;4970465;28;20048;-60
2023/03/13 02:20:17;;;;;;;5.90;1.13;;;;;;;;;;4970091;28;20504;-59
2023/03/13 02:22:42;;;;;;;5.28;1.27;;;;;;;;;;4971021;28;20037;-59
2023/03/13 02:25:23;;;;;;;4.30;1.08;;;;;;;;;;4970139;28;20031;-59
2023/03/13 02:27:56;;;;;;;2.72;1.23;;;;;;;;;;4966863;28;20034;-59
2023/03/13 02:30:22;;;;;;;2.22;1.00;;;;;;;;;;4969429;28;20093;-59
2023/03/13 02:32:48;;;;;;;1.67;0.77;;;;;;;;;;4970513;28;20066;-59
2023/03/13 02:35:17;;;;;;;2.28;0.98;;;;;;;;;;4970651;28;20027;-58
2023/03/13 02:37:45;;;;;;;2.05;1.00;;;;;;;;;;4971416;28;20656;-59
2023/03/13 02:40:14;;;;;;;2.97;1.05;;;;;;;;;;4970913;28;20038;-58
2023/03/13 02:42:42;;;;;;;2.58;0.80;;;;;;;;;;4972024;28;20026;-60
2023/03/13 02:45:08;;;;;;;3.90;1.15;;;;;;;;;;4971001;28;20042;-60
2023/03/13 02:47:34;;;;;;;2.75;0.85;;;;;;;;;;4970150;28;20054;-58
2023/03/13 02:49:59;;;;;;;3.88;1.00;;;;;;;;;;4972364;28;20110;-59
2023/03/13 02:52:24;;;;;;;6.75;1.27;;;;;;;;;;4969559;28;20027;-59
2023/03/13 02:54:55;;;;;;;3.45;0.80;;;;;;;;;;4971089;28;20653;-59
2023/03/13 02:57:20;;;;;;;3.53;0.93;;;;;;;;;;4971729;28;20077;-59
2023/03/13 02:59:46;;;;;;;2.75;0.90;;;;;;;;;;4970732;28;20460;-59
2023/03/13 03:02:11;;;;;;;3.70;1.02;;;;;;;;;;4969984;28;20035;-59
2023/03/13 03:04:36;;;;;;;3.78;1.67;;;;;;;;;;4969793;28;20134;-60
2023/03/13 03:07:02;;;;;;;4.38;1.27;;;;;;;;;;4970220;28;20134;-61
2023/03/13 03:09:27;;;;;;;1.85;1.10;;;;;;;;;;4975161;28;20027;-59
2023/03/13 03:11:53;;;;;;;3.47;1.10;;;;;;;;;;4970046;28;20030;-59
2023/03/13 03:14:18;;;;;;;2.38;1.17;;;;;;;;;;4969312;28;20089;-59
2023/03/13 03:16:44;;;;;;;3.30;1.05;;;;;;;;;;4969241;28;20465;-59
2023/03/13 03:19:12;;;;;;;2.72;0.95;;;;;;;;;;4968133;28;20483;-59
2023/03/13 03:21:37;;;;;;;4.75;1.05;;;;;;;;;;4966755;28;20408;-59
2023/03/13 03:24:03;;;;;;;3.35;0.95;;;;;;;;;;4969349;28;20035;-59
2023/03/13 03:26:28;;;;;;;2.08;1.00;;;;;;;;;;4969416;28;20065;-59
2023/03/13 03:28:54;;;;;;;1.83;1.00;;;;;;;;;;4969633;28;20022;-59
2023/03/13 03:31:19;;;;;;;5.88;0.90;;;;;;;;;;4969135;28;20628;-60
2023/03/13 03:33:45;;;;;;;3.92;1.42;;;;;;;;;;4969622;28;20030;-59
2023/03/13 03:36:16;;;;;;;2.88;1.40;;;;;;;;;;4970833;28;20030;-59
2023/03/13 03:38:42;;;;;;;5.30;1.40;;;;;;;;;;4973611;28;20037;-59
2023/03/13 03:41:09;;;;;;;3.20;1.13;;;;;;;;;;4972808;28;20110;-60
2023/03/13 03:43:34;;;;;;;1.88;1.13;;;;;;;;;;4975188;28;20436;-59
2023/03/13 03:46:00;;;;;;;2.13;0.88;;;;;;;;;;4976248;28;20042;-59
2023/03/13 03:48:25;;;;;;;4.30;1.17;;;;;;;;;;4975234;28;20022;-59
2023/03/13 03:50:51;;;;;;;2.92;1.00;;;;;;;;;;4975626;28;20049;-59
2023/03/13 03:53:16;;;;;;;2.90;1.02;;;;;;;;;;4976667;28;20062;-59
2023/03/13 03:55:42;;;;;;;1.70;0.80;;;;;;;;;;4975968;28;20034;-59
2023/03/13 03:58:07;;;;;;;2.97;1.15;;;;;;;;;;4974966;28;20503;-59
2023/03/13 04:00:32;;;;;;;3.17;1.20;;;;;;;;;;4971848;28;20074;-59
2023/03/13 04:02:58;;;;;;;1.63;1.00;;;;;;;;;;4974800;28;20460;-59
2023/03/13 04:05:23;;;;;;;2.53;0.88;;;;;;;;;;4972380;28;20513;-59
2023/03/13 04:07:49;;;;;;;2.75;0.95;;;;;;;;;;4976164;28;20038;-59
2023/03/13 04:10:15;;;;;;;5.10;1.30;;;;;;;;;;4972530;28;20034;-59
2023/03/13 04:12:40;;;;;;;3.08;1.30;;;;;;;;;;4972612;28;20031;-59
2023/03/13 04:15:06;;;;;;;3.65;1.13;;;;;;;;;;4971222;28;20428;-59
2023/03/13 04:17:32;;;;;;;3.17;1.20;;;;;;;;;;4977706;28;20054;-59
2023/03/13 04:19:57;;;;;;;6.63;1.58;;;;;;;;;;4971359;28;20030;-59
2023/03/13 04:22:23;;;;;;;2.70;1.42;;;;;;;;;;4973201;28;20046;-60
2023/03/13 04:24:48;;;;;;;5.18;1.20;;;;;;;;;;4972021;28;20065;-59
2023/03/13 04:27:14;;;;;;;3.60;1.35;;;;;;;;;;4972396;28;20035;-59
2023/03/13 04:29:39;;;;;;;3.10;1.20;;;;;;;;;;4971479;28;20030;-59
2023/03/13 04:32:05;;;;;;;3.40;1.45;;;;;;;;;;4972345;28;20034;-58
2023/03/13 04:34:30;;;;;;;2.42;0.90;;;;;;;;;;4972250;28;20061;-58
2023/03/13 04:36:56;;;;;;;2.65;1.27;;;;;;;;;;4972717;28;20048;-58
2023/03/13 04:39:24;;;;;;;4.47;1.30;;;;;;;;;;4973984;28;20038;-59
2023/03/13 04:41:53;;;;;;;5.95;1.55;;;;;;;;;;4977693;28;20054;-58
2023/03/13 04:44:19;;;;;;;4.65;1.33;;;;;;;;;;4975008;28;20034;-59
2023/03/13 04:46:45;;;;;;;4.30;1.40;;;;;;;;;;4973405;28;20503;-58
2023/03/13 04:49:10;;;;;;;2.67;1.33;;;;;;;;;;4975138;28;20030;-59
2023/03/13 04:51:36;;;;;;;3.60;1.40;;;;;;;;;;4974403;28;20591;-58
2023/03/13 04:54:02;;;;;;;3.70;1.63;;;;;;;;;;4975366;28;20029;-58
2023/03/13 04:56:27;;;;;;;4.90;1.52;;;;;;;;;;4976434;28;20559;-60
2023/03/13 04:58:53;;;;;;;5.78;1.52;;;;;;;;;;4974644;28;20042;-58
2023/03/13 05:01:19;;;;;;;2.47;1.20;;;;;;;;;;4977895;28;20089;-59
2023/03/13 05:03:44;;;;;;;4.30;1.30;;;;;;;;;;4972419;28;20036;-59
2023/03/13 05:06:11;;;;;;;3.70;1.40;;;;;;;;;;4975114;28;20114;-59
2023/03/13 05:08:37;;;;;;;3.08;1.55;;;;;;;;;;4973434;28;20034;-59
2023/03/13 05:11:02;;;;;;;4.80;1.20;;;;;;;;;;4976412;28;20034;-59
2023/03/13 05:13:28;;;;;;;3.67;1.38;;;;;;;;;;4975323;28;20022;-59
2023/03/13 05:15:53;;;;;;;2.85;1.33;;;;;;;;;;4972221;28;20035;-58
2023/03/13 05:18:19;;;;;;;3.08;1.08;;;;;;;;;;4978693;28;20027;-59
2023/03/13 05:20:44;;;;;;;2.28;1.17;;;;;;;;;;4971996;28;20048;-60
2023/03/13 05:23:09;;;;;;;2.90;1.30;;;;;;;;;;4977042;28;20419;-59
2023/03/13 05:25:35;;;;;;;2.17;1.27;;;;;;;;;;4972019;28;20042;-59
2023/03/13 05:28:00;;;;;;;4.30;1.30;;;;;;;;;;4972340;28;20544;-59
2023/03/13 05:30:26;;;;;;;1.98;1.00;;;;;;;;;;4968722;28;20037;-58
2023/03/13 05:32:51;;;;;;;1.48;1.13;;;;;;;;;;4972323;28;20119;-60
2023/03/13 05:35:17;;;;;;;5.15;1.10;;;;;;;;;;4971859;28;20030;-58
2023/03/13 05:37:42;;;;;;;2.38;1.30;;;;;;;;;;4972284;28;20400;-59
2023/03/13 05:40:09;;;;;;;1.63;1.02;;;;;;;;;;4972895;28;20109;-59
2023/03/13 05:42:34;;;;;;;4.57;1.67;;;;;;;;;;4974256;28;20110;-58
2023/03/13 05:45:00;;;;;;;3.08;1.50;;;;;;;;;;4973244;28;20038;-59
2023/03/13 05:47:25;;;;;;;1.80;1.20;;;;;;;;;;4972185;28;20054;-58
2023/03/13 05:49:50;;;;;;;2.45;1.20;;;;;;;;;;4972638;28;20034;-59
2023/03/13 05:52:16;;;;;;;6.28;2.05;;;;;;;;;;4971257;28;20719;-58
2023/03/13 05:54:41;;;;;;;3.13;1.20;;;;;;;;;;4971737;28;20034;-57
2023/03/13 05:57:06;;;;;;;3.47;1.55;;;;;;;;;;4968742;28;20033;-59
2023/03/13 05:59:32;;;;;;;5.47;1.90;;;;;;;;;;4970132;28;20493;-58
2023/03/13 06:01:57;;;;;;;3.28;2.10;;;;;;;;;;4972565;28;20082;-58
2023/03/13 06:04:23;;;;;;;1.30;0.90;;;;;;;;;;4970722;28;20031;-59
2023/03/13 06:06:48;;;;;;;2.80;1.00;;;;;;;;;;4969707;28;20030;-58
2023/03/13 06:09:14;;;;;;;2.88;1.10;;;;;;;;;;4973284;28;20073;-59
2023/03/13 06:11:40;;;;;;;1.35;0.85;;;;;;;;;;4973110;28;20061;-59
2023/03/13 06:14:06;;;;;;;2.05;1.00;;;;;;;;;;4972358;28;20022;-58
2023/03/13 06:16:32;;;;;;;2.05;0.77;;;;;;;;;;4970913;28;20612;-59
2023/03/13 06:18:57;;;;;;;0.85;0.70;;;;;;;;;;4970684;28;20096;-59
2023/03/13 06:21:23;;;;;;;1.73;0.90;;;;;;;;;;4969285;28;20106;-58
2023/03/13 06:23:48;;;;;;;1.10;1.00;;;;;;;;;;4960306;28;20092;-60
2023/03/13 06:26:14;;;;;;;0.82;0.70;;;;;;;;;;4965179;28;20693;-60
2023/03/13 06:28:39;;;;;;;2.88;0.70;;;;;;;;;;4967079;28;20034;-59
2023/03/13 06:31:06;;;;;;;1.40;0.60;;;;;;;;;;4967350;28;20061;-60
2023/03/13 06:33:32;;;;;;;1.63;0.95;;;;;;;;;;4971159;28;20033;-59
2023/03/13 06:36:00;;;;;;;2.95;1.60;;;;;;;;;;4971327;28;20038;-60
2023/03/13 06:38:26;;;;;;;0.98;0.70;;;;;;;;;;4969813;28;20034;-58
2023/03/13 06:40:52;;;;;;;0.82;0.80;;;;;;;;;;4966538;28;20066;-60
2023/03/13 06:43:17;;;;;;;1.48;1.30;;;;;;;;;;4970750;28;20113;-60
2023/03/13 06:45:43;;;;;;;1.95;0.70;;;;;;;;;;4969601;28;20034;-59
2023/03/13 06:48:08;;;;;;;1.20;0.80;;;;;;;;;;4970009;28;20031;-58
2023/03/13 06:50:37;;;;;;;0.68;0.60;;;;;;;;;;4970321;28;20034;-59
2023/03/13 06:53:02;;;;;;;0.83;0.70;;;;;;;;;;5003074;28;20065;-60
2023/03/13 06:55:28;;;;;;;1.35;0.65;;;;;;;;;;4970410;28;20567;-59
2023/03/13 06:57:53;;;;;;;0.50;0.50;;;;;;;;;;4972020;28;20033;-58
2023/03/13 07:00:19;;;;;;;0.75;0.70;;;;;;;;;;4968468;28;20032;-59
2023/03/13 07:02:45;;;;;;;0.80;0.68;;;;;;;;;;4969280;28;20042;-58
2023/03/13 07:05:10;;;;;;;1.63;0.70;;;;;;;;;;4968697;28;20097;-59
2023/03/13 07:07:36;;;;;;;1.08;0.95;;;;;;;;;;4967889;28;20110;-60
2023/03/13 07:10:01;;;;;;;4.40;1.00;;;;;;;;;;4969579;28;20405;-59
2023/03/13 07:12:27;;;;;;;1.77;1.00;;;;;;;;;;4964985;28;20035;-59
2023/03/13 07:14:52;;;;;;;0.88;0.70;;;;;;;;;;4967280;28;20104;-59
2023/03/13 07:17:17;;;;;;;0.65;0.60;;;;;;;;;;4968980;28;20023;-60
2023/03/13 07:19:43;;;;;;;1.33;0.63;;;;;;;;;;4962857;28;20026;-58
2023/03/13 07:22:08;;;;;;;1.75;0.73;;;;;;;;;;4967212;28;20373;-58
2023/03/13 07:24:33;;;;;;;0.95;0.82;;;;;;;;;;4999817;28;20041;-59
2023/03/13 07:26:59;;;;;;;1.42;1.00;;;;;;;;;;4968848;28;20489;-59
2023/03/13 07:29:24;;;;;;;1.48;0.88;;;;;;;;;;4967632;28;20030;-59
2023/03/13 07:31:50;;;;;;;3.90;0.80;;;;;;;;;;4966435;28;20023;-58
2023/03/13 07:34:15;;;;;;;1.65;0.88;;;;;;;;;;4967714;28;20369;-59
2023/03/13 07:36:41;;;;;;;4.07;0.82;;;;;;;;;;4967139;28;20026;-60
2023/03/13 07:39:07;;;;;;;0.93;0.65;;;;;;;;;;4966730;28;20137;-60
2023/03/13 07:41:32;;;;;;;5.28;1.00;;;;;;;;;;4967816;28;20085;-59
2023/03/13 07:43:58;;;;;;;2.60;0.80;;;;;;;;;;4967683;28;20481;-59
2023/03/13 07:46:23;;;;;;;2.50;0.90;;;;;;;;;;4967657;28;20039;-59
2023/03/13 07:48:49;;;;;;;1.25;1.00;;;;;;;;;;4966086;28;20038;-59
2023/03/13 07:51:21;;;;;;;1.90;0.90;;;;;;;;;;4967379;28;20041;-58
2023/03/13 07:53:46;;;;;;;0.98;0.80;;;;;;;;;;4964627;28;20744;-59
2023/03/13 07:56:15;;;;;;;0.90;0.90;;;;;;;;;;4969973;28;20043;-60
2023/03/13 07:58:41;;;;;;;2.75;0.95;;;;;;;;;;4968372;28;20045;-58
2023/03/13 08:01:26;;;;;;;2.45;0.90;;;;;;;;;;4967806;28;20034;-58
2023/03/13 08:03:55;;;;;;;2.42;0.70;;;;;;;;;;4969406;28;20555;-58
2023/03/13 08:06:25;;;;;;;1.52;0.98;;;;;;;;;;4968789;28;20384;-60
2023/03/13 08:08:51;;;;;;;2.33;1.25;;;;;;;;;;4967125;28;20415;-59
2023/03/13 08:11:23;;;;;;;3.67;1.20;;;;;;;;;;4967364;28;20027;-59
2023/03/13 08:13:49;;;;;;;1.52;1.00;;;;;;;;;;4967755;28;20546;-59
2023/03/13 08:16:17;;;;;;;1.48;0.80;;;;;;;;;;4966600;28;20034;-59
2023/03/13 08:18:45;;;;;;;1.13;1.00;;;;;;;;;;4967332;28;20026;-59
2023/03/13 08:21:16;;;;;;;2.30;0.90;;;;;;;;;;4967486;28;20023;-59
2023/03/13 08:23:41;;;;;;;1.13;0.90;;;;;;;;;;4968367;28;20058;-58
2023/03/13 08:26:13;;;;;;;2.60;1.30;;;;;;;;;;4972032;28;20575;-60
2023/03/13 08:28:39;;;;;;;3.03;1.35;;;;;;;;;;4971463;28;20022;-59
2023/03/13 08:31:18;;;;;;;1.90;1.00;;;;;;;;;;4967651;28;20086;-60
2023/03/13 08:33:45;;;;;;;;;;;;;;;;;;4971997;28;20030;-60
2023/03/13 08:36:16;;;;;;;0.90;0.90;;;;;;;;;;4971603;28;20008;-59
2023/03/13 08:38:43;;;;;;;1.15;1.05;;;;;;;;;;4969997;28;20054;-58
2023/03/13 08:41:08;;;;;;;1.20;1.10;;;;;;;;;;4972437;28;20452;-60
2023/03/13 08:43:34;;;;;;;2.47;1.10;;;;;;;;;;4972809;28;20034;-59
2023/03/13 08:45:59;;;;;;;2.15;1.20;;;;;;;;;;4972095;28;20038;-58
2023/03/13 08:48:25;;;;;;;1.63;1.23;;;;;;;;;;4971323;28;20125;-59
2023/03/13 08:51:05;;;;;;;2.13;1.35;;;;;;;;;;4972420;28;20033;-58
2023/03/13 08:53:32;;;;;;;4.15;1.55;;;;;;;;;;4970473;28;20038;-61
2023/03/13 08:55:58;;;;;;;4.20;1.40;;;;;;;;;;4968991;28;20034;-59
2023/03/13 08:58:24;;;;;;;1.63;1.00;;;;;;;;;;4971891;28;20054;-58
2023/03/13 09:00:49;;;;;;;1.00;0.90;;;;;;;;;;4972562;28;20409;-58
2023/03/13 09:03:16;;;;;;;2.88;1.15;;;;;;;;;;4970248;28;20030;-58
2023/03/13 09:05:41;;;;;;;3.03;1.60;;;;;;;;;;4971966;28;20057;-58
2023/03/13 09:08:07;;;;;;;4.38;2.40;;;;;;;;;;4972196;28;20038;-58
2023/03/13 09:10:32;;;;;;;2.75;0.98;;;;;;;;;;4970674;28;20054;-58
2023/03/13 09:12:57;;;;;;;1.80;1.13;;;;;;;;;;4969129;28;20026;-59
2023/03/13 09:15:23;;;;;;;1.42;1.08;;;;;;;;;;4969838;28;20049;-58
2023/03/13 09:17:48;;;;;;;2.00;1.30;;;;;;;;;;4971288;28;20033;-58
2023/03/13 09:20:14;;;;;;;1.70;1.40;;;;;;;;;;4969993;28;20407;-59
2023/03/13 09:22:39;;;;;;;1.92;1.17;;;;;;;;;;4970829;28;20026;-58
2023/03/13 09:25:05;;;;;;;1.90;1.08;;;;;;;;;;4969872;28;20559;-59
2023/03/13 09:27:30;;;;;;;1.50;1.00;;;;;;;;;;4971640;28;20033;-59
2023/03/13 09:29:56;;;;;;;1.63;1.08;;;;;;;;;;4970873;28;20128;-58
2023/03/13 09:32:21;;;;;;;1.80;1.50;;;;;;;;;;4969584;28;20513;-58
2023/03/13 09:34:46;;;;;;;1.50;1.08;;;;;;;;;;4968829;28;20037;-59
2023/03/13 09:37:12;;;;;;;1.58;1.08;;;;;;;;;;4969780;28;20026;-59
2023/03/13 09:39:37;;;;;;;2.03;1.10;;;;;;;;;;4970409;28;20042;-58
2023/03/13 09:42:23;;;;;;;1.48;1.38;;;;;;;;;;4970919;28;20102;-59
2023/03/13 09:45:05;;;;;;;1.95;1.30;;;;;;;;;;4968984;28;20037;-58
2023/03/13 09:48:03;;;;;;;2.97;1.38;;;;;;;;;;4971931;28;20501;-58
2023/03/13 09:50:41;;;;;;;2.47;1.40;;;;;;;;;;4959986;28;20046;-58
2023/03/13 09:53:18;;;;;;;1.23;1.13;;;;;;;;;;4968390;28;20022;-59
2023/03/13 09:55:44;;;;;;;1.98;1.23;;;;;;;;;;4971837;28;20030;-60
2023/03/13 09:58:13;;;;;;;1.85;1.15;;;;;;;;;;4972307;28;20472;-57
2023/03/13 10:00:40;;;;;;;4.28;1.40;;;;;;;;;;4966087;28;20635;-59
2023/03/13 10:03:26;;;;;;;1.58;1.42;;;;;;;;;;4971133;28;20030;-58
2023/03/13 10:05:56;;;;;;;2.83;1.98;;;;;;;;;;4969917;28;20038;-59
2023/03/13 10:08:24;;;;;;;2.95;1.52;;;;;;;;;;4969375;28;20053;-59
2023/03/13 10:11:11;;;;;;;5.18;1.67;;;;;;;;;;4970245;28;20026;-59
2023/03/13 10:13:53;;;;;;;1.98;1.65;;;;;;;;;;4969828;28;20027;-60
2023/03/13 10:16:41;;;;;;;2.15;1.40;;;;;;;;;;4969795;28;20666;-57
2023/03/13 10:19:14;;;;;;;4.00;1.93;;;;;;;;;;4965353;28;20515;-59
2023/03/13 10:21:41;;;;;;;2.67;1.70;;;;;;;;;;4968322;28;20040;-60
2023/03/13 10:24:10;;;;;;;4.22;1.50;;;;;;;;;;4969594;28;20293;-59
2023/03/13 10:26:36;;;;;;;3.92;1.33;;;;;;;;;;4968260;28;20027;-59
2023/03/13 10:29:19;;;;;;;2.13;1.40;;;;;;;;;;4967044;28;20114;-59
2023/03/13 10:31:57;;;;;;;3.15;1.58;;;;;;;;;;4968131;28;20460;-59
2023/03/13 10:34:25;;;;;;;3.45;1.63;;;;;;;;;;4966675;28;20086;-59
2023/03/13 10:36:58;;;;;;;3.28;1.70;;;;;;;;;;4969589;28;20023;-59
2023/03/13 10:39:26;;;;;;;5.55;1.60;;;;;;;;;;4968284;28;20053;-59
2023/03/13 10:41:58;;;;;;;7.15;1.77;;;;;;;;;;4967438;28;20085;-59
2023/03/13 10:44:31;;;;;;;1.88;1.50;;;;;;;;;;4970045;28;20027;-59
2023/03/13 10:47:00;;;;;;;2.20;1.77;;;;;;;;;;4999584;28;20440;-59
2023/03/13 10:49:25;;;;;;;7.97;1.65;;;;;;;;;;4968889;28;20042;-58
2023/03/13 10:51:59;;;;;;;3.78;1.60;;;;;;;;;;4969679;28;20034;-59
2023/03/13 10:54:30;;;;;;;2.75;1.80;;;;;;;;;;4969090;28;20030;-58
2023/03/13 10:57:17;;;;;;;2.75;1.63;;;;;;;;;;4971126;28;20465;-58
2023/03/13 10:59:45;;;;;;;2.47;1.70;;;;;;;;;;4970201;28;20026;-59
2023/03/13 11:02:25;;;;;;;3.40;1.50;;;;;;;;;;4968432;28;20022;-58
2023/03/13 11:04:54;;;;;;;3.90;1.60;;;;;;;;;;4971148;28;20396;-58
2023/03/13 11:07:31;;;;;;;3.53;1.60;;;;;;;;;;4971133;28;20058;-59
2023/03/13 11:09:58;;;;;;;4.05;1.50;;;;;;;;;;4965051;28;20407;-59
2023/03/13 11:12:23;;;;;;;6.03;2.15;;;;;;;;;;4968600;28;20507;-59
2023/03/13 11:14:55;;;;;;;2.55;1.70;;;;;;;;;;4966276;28;20043;-59
2023/03/13 11:17:31;;;;;;;3.63;1.73;;;;;;;;;;4967819;28;20740;-59
2023/03/13 11:20:31;;;;;;;4.57;1.80;;;;;;;;;;4967581;28;20030;-59
2023/03/13 11:23:00;;;;;;;3.25;1.80;;;;;;;;;;4964230;28;20459;-60
2023/03/13 11:25:42;;;;;;;2.20;1.50;;;;;;;;;;4966876;28;20030;-60
2023/03/13 11:28:35;;;;;;;2.33;1.40;;;;;;;;;;4969760;28;20116;-59
2023/03/13 11:31:11;;;;;;;1.83;1.30;;;;;;;;;;4964220;28;20061;-59
2023/03/13 11:34:33;;;;;;;5.93;1.70;;;;;;;;;;4964826;28;20026;-59
2023/03/13 11:37:08;;;;;;;3.42;1.50;;;;;;;;;;4964399;28;20062;-58
2023/03/13 11:39:56;;;;;;;3.00;1.60;;;;;;;;;;4954542;28;20050;-59
2023/03/13 11:42:36;;;;;;;2.85;1.73;;;;;;;;;;4965837;28;20030;-58
2023/03/13 11:45:57;;;;;;;2.67;1.70;;;;;;;;;;4967350;28;20023;-60
2023/03/13 11:48:41;;;;;;;6.57;1.52;;;;;;;;;;4933671;28;20049;-59
2023/03/13 11:51:16;;;;;;;3.13;1.20;;;;;;;;;;4964902;28;20033;-58
2023/03/13 11:54:03;;;;;;;2.92;1.42;;;;;;;;;;4970434;28;20027;-59
2023/03/13 11:56:50;;;;;;;3.70;1.85;;;;;;;;;;4966623;28;20018;-60
2023/03/13 11:59:24;;;;;;;2.00;1.45;;;;;;;;;;4968441;28;20493;-60
2023/03/13 12:02:24;;;;;;;7.60;1.95;;;;;;;;;;4973887;28;20474;-60
2023/03/13 12:05:07;;;;;;;4.57;1.65;;;;;;;;;;4968547;28;20027;-59
2023/03/13 12:07:35;;;;;;;2.88;1.70;;;;;;;;;;4970674;28;20050;-60
2023/03/13 12:10:15;;;;;;;5.68;1.63;;;;;;;;;;4971584;28;20031;-59
2023/03/13 12:13:17;;;;;;;3.97;1.58;;;;;;;;;;4968773;28;20030;-59
2023/03/13 12:15:46;;;;;;;1.65;1.40;;;;;;;;;;4969447;28;20053;-59
2023/03/13 12:18:30;;;;;;;2.03;1.40;;;;;;;;;;4971588;28;20030;-59
2023/03/13 12:20:59;;;;;;;3.17;1.70;;;;;;;;;;4963654;28;20423;-59
2023/03/13 12:23:43;;;;;;;3.95;1.60;;;;;;;;;;4965941;28;20756;-60
2023/03/13 12:26:12;;;;;;;5.03;1.70;;;;;;;;;;4969247;28;20500;-60
2023/03/13 12:28:50;;;;;;;2.70;1.65;;;;;;;;;;4972022;28;20058;-59
2023/03/13 12:31:51;;;;;;;2.90;1.70;;;;;;;;;;4999240;28;20117;-59
2023/03/13 12:34:44;;;;;;;7.35;3.22;;;;;;;;;;4968824;28;20050;-60
2023/03/13 12:37:23;;;;;;;2.67;1.95;;;;;;;;;;4972087;28;20015;-59
2023/03/13 12:39:59;;;;;;;4.22;1.90;;;;;;;;;;4969679;28;20097;-60
2023/03/13 12:42:33;;;;;;;3.15;1.63;;;;;;;;;;4971073;28;20096;-59
2023/03/13 12:44:59;;;;;;;3.58;1.50;;;;;;;;;;4967607;28;20581;-59
2023/03/13 12:47:32;;;;;;;4.18;1.90;;;;;;;;;;4970943;28;20144;-59
2023/03/13 12:50:34;;;;;;;4.80;1.67;;;;;;;;;;4968619;28;20110;-59
2023/03/13 12:53:26;;;;;;;2.03;1.60;;;;;;;;;;4970152;28;20821;-59
2023/03/13 12:56:03;;;;;;;10.07;2.10;;;;;;;;;;4970550;28;20062;-59
2023/03/13 12:58:31;;;;;;;3.53;1.58;;;;;;;;;;4970655;28;20023;-59
2023/03/13 13:01:02;;;;;;;3.25;1.50;;;;;;;;;;4970221;28;20030;-59
2023/03/13 13:03:38;;;;;;;3.67;1.55;;;;;;;;;;4969344;28;20062;-59
2023/03/13 13:06:12;;;;;;;5.15;2.50;;;;;;;;;;4971353;28;20071;-59
2023/03/13 13:08:40;;;;;;;6.78;1.60;;;;;;;;;;4971647;28;20035;-60
2023/03/13 13:11:34;;;;;;;4.38;1.75;;;;;;;;;;4971569;28;20054;-59
2023/03/13 13:14:17;;;;;;;4.95;1.60;;;;;;;;;;4985365;28;20050;-59
2023/03/13 13:16:47;;;;;;;4.00;1.92;;;;;;;;;;4969230;28;20066;-58
2023/03/13 13:19:22;;;;;;;4.35;1.40;;;;;;;;;;4968506;28;20023;-59
2023/03/13 13:22:25;;;;;;;5.00;1.55;;;;;;;;;;4968847;28;20078;-59
2023/03/13 13:24:52;;;;;;;4.50;1.95;;;;;;;;;;4966040;28;20086;-58
2023/03/13 13:27:35;;;;;;;5.82;1.40;;;;;;;;;;4969188;28;20101;-59
2023/03/13 13:30:23;;;;;;;5.90;1.80;;;;;;;;;;4968987;28;20035;-59
2023/03/13 13:32:50;;;;;;;4.35;1.42;;;;;;;;;;4969957;28;20493;-59
2023/03/13 13:35:33;;;;;;;7.95;1.65;;;;;;;;;;4969470;28;20045;-59
2023/03/13 13:38:17;;;;;;;5.63;1.50;;;;;;;;;;4965898;28;20031;-59
2023/03/13 13:41:20;;;;;;;6.97;1.60;;;;;;;;;;4967387;28;20105;-60
2023/03/13 13:43:48;;;;;;;3.13;1.60;;;;;;;;;;4968963;28;20026;-59
2023/03/13 13:46:32;;;;;;;5.15;1.65;;;;;;;;;;4969080;28;20256;-60
2023/03/13 13:49:04;;;;;;;5.60;1.83;;;;;;;;;;4968763;28;20528;-58
2023/03/13 13:51:30;;;;;;;7.93;1.70;;;;;;;;;;4966932;28;20079;-58
2023/03/13 13:54:00;;;;;;;3.83;1.60;;;;;;;;;;4969722;28;20169;-59
2023/03/13 13:56:41;;;;;;;4.22;2.13;;;;;;;;;;4970357;28;20034;-58
2023/03/13 13:59:19;;;;;;;7.30;1.58;;;;;;;;;;4969200;28;20035;-58
2023/03/13 14:01:46;;;;;;;3.80;1.30;;;;;;;;;;4970896;28;20026;-59
2023/03/13 14:04:23;;;;;;;5.72;2.47;;;;;;;;;;4969113;28;20027;-59
2023/03/13 14:06:51;;;;;;;6.40;2.50;;;;;;;;;;4970592;28;20096;-58
2023/03/13 14:09:33;;;;;;;5.83;1.57;;;;;;;;;;4968014;28;20038;-58
2023/03/13 14:11:58;;;;;;;4.63;1.70;;;;;;;;;;4969074;28;20110;-58
2023/03/13 14:14:24;;;;;;;4.60;1.70;;;;;;;;;;4970115;28;20588;-59
2023/03/13 14:16:51;;;;;;;4.70;1.58;;;;;;;;;;4969738;28;20026;-58
2023/03/13 14:19:29;;;;;;;5.00;1.85;;;;;;;;;;4968832;28;20065;-58
2023/03/13 14:22:00;;;;;;;5.80;1.40;;;;;;;;;;4968059;28;20400;-58
2023/03/13 14:24:25;;;;;;;4.22;1.30;;;;;;;;;;4967810;28;20031;-59
2023/03/13 14:26:50;;;;;;;5.45;1.65;;;;;;;;;;4968694;28;20074;-59
2023/03/13 14:29:19;;;;;;;3.45;1.40;;;;;;;;;;4968214;28;20030;-58
2023/03/13 14:31:56;;;;;;;3.47;1.70;;;;;;;;;;4970608;28;20676;-59
2023/03/13 14:34:22;;;;;;;2.55;1.35;;;;;;;;;;4968214;28;20035;-59
2023/03/13 14:36:49;;;;;;;2.45;1.52;;;;;;;;;;4969301;28;20049;-58
2023/03/13 14:39:36;;;;;;;3.15;1.50;;;;;;;;;;4970789;28;20022;-60
2023/03/13 14:42:15;;;;;;;6.28;1.50;;;;;;;;;;4971548;28;20564;-60
2023/03/13 14:44:42;;;;;;;;;;;;;;;;;;4969189;28;20225;-59
2023/03/13 14:47:23;;;;;;;3.00;1.27;;;;;;;;;;4967235;28;19921;-60
2023/03/13 14:49:57;;;;;;;3.00;1.23;;;;;;;;;;4968141;28;20670;-60
2023/03/13 14:52:24;;;;;;;4.35;1.50;;;;;;;;;;4968385;28;20042;-59
2023/03/13 14:54:55;;;;;;;3.80;1.35;;;;;;;;;;4967893;28;20085;-60
2023/03/13 14:57:25;;;;;;;3.08;1.30;;;;;;;;;;4966780;28;20037;-60
2023/03/13 14:59:52;;;;;;;4.85;1.35;;;;;;;;;;4966968;28;20032;-60
2023/03/13 15:02:26;;;;;;;6.18;1.73;;;;;;;;;;4968962;28;20033;-60